Time;durP1;ratioP1;P1;durP2;ratioP2;P2;SDS_P1;SDS_P2;PMS_P1;PMS_P2;Temp;Humidity;BMP_temperature;BMP_pressure;BME280_temperature;BME280_humidity;BME280_pressure;Samples;Min_cycle;Max_cycle;Signal;HPM_P1;HPM_P2
2021/09/12 00:01:10;;;;;;;7.10;6.40;;;15.60;99.90;;;;;;5053953;28;20450;-73
2021/09/12 00:03:37;;;;;;;6.80;5.83;;;15.60;99.90;;;;;;5065595;28;20477;-74
2021/09/12 00:06:04;;;;;;;9.25;6.00;;;15.60;99.90;;;;;;5073493;28;20952;-74
2021/09/12 00:08:32;;;;;;;6.40;5.80;;;15.60;99.90;;;;;;5059705;28;20722;-73
2021/09/12 00:10:59;;;;;;;6.68;6.05;;;15.70;99.90;;;;;;5053536;28;20485;-74
2021/09/12 00:13:26;;;;;;;6.50;6.00;;;15.60;99.90;;;;;;5065790;28;20263;-74
2021/09/12 00:15:53;;;;;;;6.47;5.97;;;15.60;99.90;;;;;;5065357;28;20992;-74
2021/09/12 00:18:20;;;;;;;6.93;6.33;;;15.60;99.90;;;;;;5053631;28;20521;-74
2021/09/12 00:20:47;;;;;;;6.40;5.80;;;15.60;99.90;;;;;;5059418;28;21020;-73
2021/09/12 00:23:14;;;;;;;9.82;6.13;;;15.60;99.90;;;;;;5073296;28;20552;-73
2021/09/12 00:25:42;;;;;;;8.90;6.47;;;15.60;99.90;;;;;;5073085;28;20290;-73
2021/09/12 00:28:10;;;;;;;8.10;6.07;;;15.60;99.90;;;;;;5073396;28;20507;-74
2021/09/12 00:30:36;;;;;;;6.67;6.03;;;15.60;99.90;;;;;;5085888;28;20510;-74
2021/09/12 00:33:04;;;;;;;6.50;5.90;;;15.60;99.90;;;;;;5097523;28;20430;-72
2021/09/12 00:35:31;;;;;;;8.00;6.30;;;15.60;99.90;;;;;;5096410;28;20480;-73
2021/09/12 00:37:57;;;;;;;8.07;6.40;;;15.50;99.90;;;;;;5090205;28;20527;-74
2021/09/12 00:40:25;;;;;;;8.30;6.30;;;15.50;99.90;;;;;;5073977;28;20564;-74
2021/09/12 00:42:53;;;;;;;7.82;6.45;;;15.40;99.90;;;;;;5055621;28;20524;-73
2021/09/12 00:45:20;;;;;;;11.45;6.63;;;15.30;99.90;;;;;;5053661;28;20295;-74
2021/09/12 00:47:48;;;;;;;6.88;6.35;;;15.30;99.90;;;;;;5032985;28;20312;-74
2021/09/12 00:50:15;;;;;;;6.60;6.00;;;15.20;99.90;;;;;;5034072;28;20207;-75
2021/09/12 00:52:46;;;;;;;7.55;6.78;;;15.20;99.90;;;;;;5073157;28;20545;-74
2021/09/12 00:55:14;;;;;;;7.77;6.00;;;15.20;99.90;;;;;;5079910;28;20267;-74
2021/09/12 00:57:43;;;;;;;6.70;6.05;;;15.10;99.90;;;;;;5072967;28;20453;-74
2021/09/12 01:00:13;;;;;;;7.72;6.20;;;15.00;99.90;;;;;;5063760;28;20198;-73
2021/09/12 01:02:41;;;;;;;9.55;6.72;;;15.00;99.90;;;;;;5093645;28;20202;-73
2021/09/12 01:05:09;;;;;;;7.40;6.37;;;14.90;99.90;;;;;;5075269;28;20308;-74
2021/09/12 01:07:38;;;;;;;7.20;6.50;;;14.90;99.90;;;;;;5057840;28;20507;-74
2021/09/12 01:10:06;;;;;;;6.90;6.30;;;14.80;99.90;;;;;;5052777;28;20465;-74
2021/09/12 01:12:34;;;;;;;7.20;5.63;;;14.80;99.90;;;;;;5067937;28;20452;-74
2021/09/12 01:15:01;;;;;;;7.22;6.53;;;14.80;99.90;;;;;;5072912;28;20253;-74
2021/09/12 01:17:30;;;;;;;6.40;5.80;;;14.80;99.90;;;;;;5057993;28;20295;-74
2021/09/12 01:19:57;;;;;;;6.10;5.50;;;14.80;99.90;;;;;;5052345;28;20234;-74
2021/09/12 01:22:25;;;;;;;9.02;6.13;;;14.80;99.90;;;;;;5065705;28;20433;-75
2021/09/12 01:24:54;;;;;;;7.93;6.38;;;14.80;99.90;;;;;;5073011;28;20266;-74
2021/09/12 01:27:21;;;;;;;7.70;6.93;;;14.80;99.90;;;;;;5060146;28;20231;-74
2021/09/12 01:29:48;;;;;;;6.60;6.00;;;14.70;99.90;;;;;;5053340;28;20298;-74
2021/09/12 01:32:15;;;;;;;6.55;5.95;;;14.80;99.90;;;;;;5054128;28;20209;-74
2021/09/12 01:34:42;;;;;;;6.53;5.93;;;14.70;99.90;;;;;;5068610;28;20232;-74
2021/09/12 01:37:09;;;;;;;6.82;6.10;;;14.70;99.90;;;;;;5059089;28;20305;-75
2021/09/12 01:39:36;;;;;;;6.70;6.10;;;14.70;99.90;;;;;;5053150;28;20296;-74
2021/09/12 01:42:05;;;;;;;11.65;7.00;;;14.70;99.90;;;;;;5067122;28;20233;-75
2021/09/12 01:44:31;;;;;;;7.22;6.40;;;14.60;99.90;;;;;;5072855;28;20606;-74
2021/09/12 01:46:58;;;;;;;8.05;7.20;;;14.60;99.90;;;;;;5061316;28;20285;-75
2021/09/12 01:49:25;;;;;;;6.40;5.80;;;14.60;99.90;;;;;;5056435;28;20573;-74
2021/09/12 01:51:53;;;;;;;8.35;6.72;;;14.60;99.90;;;;;;5057706;28;20287;-73
2021/09/12 01:54:20;;;;;;;6.93;6.22;;;14.60;99.90;;;;;;5056682;28;20237;-74
2021/09/12 01:56:47;;;;;;;7.97;7.20;;;14.50;99.90;;;;;;5056441;28;20253;-74
2021/09/12 01:59:15;;;;;;;6.55;5.90;;;14.50;99.90;;;;;;5057929;28;20238;-75
2021/09/12 02:01:42;;;;;;;8.30;6.85;;;14.50;99.90;;;;;;5076713;28;20293;-74
2021/09/12 02:04:09;;;;;;;6.85;6.25;;;14.50;99.90;;;;;;5076149;28;20672;-74
2021/09/12 02:06:36;;;;;;;7.15;6.55;;;14.50;99.90;;;;;;5077795;28;20205;-74
2021/09/12 02:09:03;;;;;;;8.00;7.20;;;14.50;99.90;;;;;;5082357;28;20292;-74
2021/09/12 02:11:30;;;;;;;10.10;6.53;;;14.50;99.90;;;;;;5061770;28;20293;-74
2021/09/12 02:13:58;;;;;;;6.88;6.20;;;14.50;99.90;;;;;;5056991;28;20313;-74
2021/09/12 02:16:26;;;;;;;7.20;6.60;;;14.40;99.90;;;;;;5057283;28;20229;-74
2021/09/12 02:18:53;;;;;;;10.07;6.68;;;14.40;99.90;;;;;;5057148;28;20460;-75
2021/09/12 02:21:20;;;;;;;7.57;6.10;;;14.30;99.90;;;;;;5073787;28;20234;-74
2021/09/12 02:23:47;;;;;;;8.25;6.70;;;14.30;99.90;;;;;;5077633;28;20257;-74
2021/09/12 02:26:14;;;;;;;7.88;7.18;;;14.30;99.90;;;;;;5073940;28;20218;-74
2021/09/12 02:28:41;;;;;;;9.25;6.63;;;14.30;99.90;;;;;;5071348;28;20207;-74
2021/09/12 02:31:08;;;;;;;7.50;6.80;;;14.40;99.90;;;;;;5084477;28;20300;-74
2021/09/12 02:33:37;;;;;;;7.50;6.65;;;14.40;99.90;;;;;;5091095;28;20245;-74
2021/09/12 02:36:04;;;;;;;8.60;6.90;;;14.30;99.90;;;;;;5076765;28;20226;-75
2021/09/12 02:38:32;;;;;;;8.05;6.15;;;14.30;99.90;;;;;;5066688;28;20222;-75
2021/09/12 02:41:00;;;;;;;6.88;6.25;;;14.20;99.90;;;;;;5076449;28;20297;-75
2021/09/12 02:43:29;;;;;;;7.28;6.57;;;14.20;99.90;;;;;;5070573;28;20231;-75
2021/09/12 02:45:56;;;;;;;7.57;6.32;;;14.20;99.90;;;;;;5074371;28;20213;-73
2021/09/12 02:48:23;;;;;;;6.95;6.28;;;14.20;99.90;;;;;;5080944;28;20198;-74
2021/09/12 02:50:51;;;;;;;7.15;6.45;;;14.10;99.90;;;;;;5086220;28;20257;-74
2021/09/12 02:53:18;;;;;;;8.10;7.30;;;14.10;99.90;;;;;;5077365;28;20300;-76
2021/09/12 02:55:45;;;;;;;10.80;6.57;;;14.10;99.90;;;;;;5056689;28;20278;-75
2021/09/12 02:58:12;;;;;;;7.40;6.72;;;14.10;99.90;;;;;;5057018;28;20210;-74
2021/09/12 03:00:39;;;;;;;6.82;6.25;;;14.10;99.90;;;;;;5075157;28;20239;-74
2021/09/12 03:03:06;;;;;;;8.57;7.13;;;14.10;99.90;;;;;;5075134;28;20264;-75
2021/09/12 03:05:32;;;;;;;7.95;7.15;;;14.10;99.90;;;;;;5075306;28;20212;-75
2021/09/12 03:08:01;;;;;;;7.72;6.95;;;14.10;99.90;;;;;;5075569;28;20549;-75
2021/09/12 03:10:28;;;;;;;7.50;6.75;;;14.00;99.90;;;;;;5057655;28;20290;-75
2021/09/12 03:12:55;;;;;;;10.10;6.63;;;14.00;99.90;;;;;;5056902;28;20218;-75
2021/09/12 03:15:21;;;;;;;9.13;6.65;;;14.00;99.90;;;;;;5078083;28;20265;-74
2021/09/12 03:17:49;;;;;;;7.55;6.88;;;14.00;99.90;;;;;;5094750;28;20248;-75
2021/09/12 03:20:15;;;;;;;7.63;6.93;;;14.00;99.90;;;;;;5082887;28;20206;-75
2021/09/12 03:22:42;;;;;;;8.55;6.60;;;14.00;99.90;;;;;;5098276;28;20217;-74
2021/09/12 03:25:11;;;;;;;7.65;6.95;;;14.00;99.90;;;;;;5065246;28;20229;-74
2021/09/12 03:27:38;;;;;;;7.72;6.93;;;14.00;99.90;;;;;;5055698;28;20289;-74
2021/09/12 03:30:07;;;;;;;9.23;7.00;;;14.00;99.90;;;;;;5068460;28;20290;-74
2021/09/12 03:32:34;;;;;;;7.72;6.93;;;13.90;99.90;;;;;;5074957;28;20300;-74
2021/09/12 03:35:01;;;;;;;9.80;7.00;;;13.90;99.90;;;;;;5074297;28;20221;-74
2021/09/12 03:37:28;;;;;;;6.90;6.30;;;13.90;99.90;;;;;;5074917;28;20312;-74
2021/09/12 03:39:54;;;;;;;7.88;7.07;;;13.80;99.90;;;;;;5074547;28;20214;-74
2021/09/12 03:42:23;;;;;;;6.53;5.93;;;13.80;99.90;;;;;;5075048;28;20293;-74
2021/09/12 03:44:50;;;;;;;9.65;7.20;;;13.80;99.90;;;;;;5066973;28;20265;-75
2021/09/12 03:47:17;;;;;;;9.52;6.30;;;13.80;99.90;;;;;;5067393;28;20226;-74
2021/09/12 03:49:44;;;;;;;13.05;6.45;;;13.70;99.90;;;;;;5072937;28;20656;-74
2021/09/12 03:52:11;;;;;;;6.13;5.53;;;13.70;99.90;;;;;;5074881;28;20212;-74
2021/09/12 03:54:38;;;;;;;7.70;7.00;;;13.70;99.90;;;;;;5067156;28;20272;-75
2021/09/12 03:57:05;;;;;;;7.60;6.82;;;13.70;99.90;;;;;;5054542;28;20317;-75
2021/09/12 03:59:33;;;;;;;7.32;6.72;;;13.70;99.90;;;;;;5056895;28;20236;-74
2021/09/12 04:02:00;;;;;;;7.43;6.72;;;13.70;99.90;;;;;;5055348;28;20233;-75
2021/09/12 04:04:27;;;;;;;7.85;6.53;;;13.70;99.90;;;;;;5067045;28;20225;-75
2021/09/12 04:06:54;;;;;;;7.25;6.20;;;13.70;99.90;;;;;;5089980;28;20213;-74
2021/09/12 04:09:21;;;;;;;7.05;6.35;;;13.70;99.90;;;;;;5073400;28;20220;-74
2021/09/12 04:11:48;;;;;;;6.70;6.20;;;13.70;99.90;;;;;;5061890;28;20222;-75
2021/09/12 04:14:15;;;;;;;6.55;5.95;;;13.60;99.90;;;;;;5057990;28;20257;-75
2021/09/12 04:16:44;;;;;;;7.05;6.35;;;13.60;99.90;;;;;;5062408;28;20264;-74
2021/09/12 04:19:12;;;;;;;7.00;6.40;;;13.60;99.90;;;;;;5061734;28;20665;-74
2021/09/12 04:21:39;;;;;;;6.43;5.70;;;13.60;99.90;;;;;;5075524;28;20447;-74
2021/09/12 04:24:06;;;;;;;7.03;6.30;;;13.50;99.90;;;;;;5069900;28;20272;-74
2021/09/12 04:26:33;;;;;;;7.95;6.45;;;13.50;99.90;;;;;;5055592;28;20293;-75
2021/09/12 04:29:00;;;;;;;8.73;6.10;;;13.50;99.90;;;;;;5072185;28;20644;-74
2021/09/12 04:31:28;;;;;;;7.22;6.05;;;13.40;99.90;;;;;;5074285;28;20230;-74
2021/09/12 04:33:56;;;;;;;6.65;6.05;;;13.40;99.90;;;;;;5057946;28;20222;-75
2021/09/12 04:36:23;;;;;;;6.20;5.60;;;13.40;99.90;;;;;;5068845;28;20237;-75
2021/09/12 04:38:50;;;;;;;6.50;5.85;;;13.40;99.90;;;;;;5076790;28;20190;-75
2021/09/12 04:41:17;;;;;;;6.30;5.80;;;13.40;99.90;;;;;;5067758;28;20210;-74
2021/09/12 04:43:43;;;;;;;6.28;5.68;;;13.30;99.90;;;;;;5090590;28;20206;-74
2021/09/12 04:46:11;;;;;;;6.45;5.85;;;13.30;99.90;;;;;;5093392;28;20206;-75
2021/09/12 04:48:38;;;;;;;6.38;5.72;;;13.20;99.90;;;;;;5076421;28;20241;-75
2021/09/12 04:51:06;;;;;;;7.00;5.90;;;13.20;99.90;;;;;;5078368;28;20206;-75
2021/09/12 04:53:33;;;;;;;7.07;6.38;;;13.10;99.90;;;;;;5096949;28;20244;-76
2021/09/12 04:56:00;;;;;;;7.30;6.28;;;13.20;99.90;;;;;;5085251;28;20198;-74
2021/09/12 04:58:27;;;;;;;7.95;6.13;;;13.20;99.90;;;;;;5075852;28;20249;-75
2021/09/12 05:00:54;;;;;;;8.55;5.93;;;13.30;99.90;;;;;;5081502;28;20241;-74
2021/09/12 05:03:21;;;;;;;7.63;6.30;;;13.30;99.90;;;;;;5068339;28;20317;-75
2021/09/12 05:05:48;;;;;;;6.57;5.97;;;13.30;99.90;;;;;;5057730;28;20206;-74
2021/09/12 05:08:16;;;;;;;6.07;5.47;;;13.30;99.90;;;;;;5057707;28;20232;-74
2021/09/12 05:10:43;;;;;;;6.20;5.60;;;13.30;99.90;;;;;;5063407;28;20256;-75
2021/09/12 05:13:10;;;;;;;8.02;6.03;;;13.30;99.90;;;;;;5090804;28;20217;-75
2021/09/12 05:15:37;;;;;;;6.57;5.45;;;13.30;99.90;;;;;;5081051;28;20225;-74
2021/09/12 05:18:04;;;;;;;6.65;5.88;;;13.40;99.90;;;;;;5081897;28;20222;-75
2021/09/12 05:20:30;;;;;;;5.93;5.30;;;13.40;99.90;;;;;;5078888;28;20248;-75
2021/09/12 05:22:57;;;;;;;6.97;6.15;;;13.40;99.90;;;;;;5076121;28;20236;-75
2021/09/12 05:25:26;;;;;;;6.80;6.10;;;13.60;99.90;;;;;;5075630;28;20241;-75
2021/09/12 05:27:53;;;;;;;7.22;5.70;;;13.90;99.90;;;;;;5060327;28;20206;-75
2021/09/12 05:30:20;;;;;;;7.30;5.63;;;14.10;99.90;;;;;;5054062;28;20202;-74
2021/09/12 05:32:49;;;;;;;5.50;4.70;;;14.40;99.90;;;;;;5070578;28;20278;-74
2021/09/12 05:35:16;;;;;;;6.65;5.50;;;14.60;99.90;;;;;;5080688;28;20205;-74
2021/09/12 05:37:44;;;;;;;5.82;4.53;;;14.80;99.90;;;;;;5082076;28;20245;-74
2021/09/12 05:40:11;;;;;;;5.00;4.45;;;15.10;99.90;;;;;;5064380;28;20235;-74
2021/09/12 05:42:39;;;;;;;7.10;4.18;;;15.40;99.90;;;;;;5083724;28;20233;-74
2021/09/12 05:45:08;;;;;;;6.30;4.27;;;15.60;99.90;;;;;;5079261;28;20243;-75
2021/09/12 05:47:36;;;;;;;4.77;4.07;;;15.80;96.50;;;;;;5053688;28;20496;-75
2021/09/12 05:50:04;;;;;;;4.03;3.70;;;15.80;93.90;;;;;;5069203;28;20523;-74
2021/09/12 05:52:31;;;;;;;4.40;3.92;;;15.90;92.30;;;;;;5073417;28;20477;-73
2021/09/12 05:54:57;;;;;;;5.45;3.95;;;16.00;91.30;;;;;;5058011;28;20254;-74
2021/09/12 05:57:24;;;;;;;6.93;4.30;;;15.90;90.00;;;;;;5052806;28;20228;-73
2021/09/12 05:59:53;;;;;;;6.00;4.70;;;15.80;90.00;;;;;;5052702;28;20616;-74
2021/09/12 06:02:20;;;;;;;4.80;4.40;;;15.70;89.90;;;;;;5052477;28;20457;-74
2021/09/12 06:04:46;;;;;;;5.23;4.80;;;15.60;90.20;;;;;;5063884;28;20552;-74
2021/09/12 06:07:13;;;;;;;4.80;4.40;;;15.50;90.90;;;;;;5072365;28;20481;-74
2021/09/12 06:09:40;;;;;;;5.20;4.60;;;15.50;91.40;;;;;;5061000;28;20459;-74
2021/09/12 06:12:08;;;;;;;5.37;4.87;;;15.40;92.00;;;;;;5052312;28;20490;-74
2021/09/12 06:14:36;;;;;;;5.30;4.87;;;15.40;92.10;;;;;;5063998;28;20488;-74
2021/09/12 06:17:05;;;;;;;5.07;4.68;;;15.40;92.50;;;;;;5072103;28;20493;-74
2021/09/12 06:19:33;;;;;;;4.33;3.93;;;15.30;92.90;;;;;;5071344;28;20204;-75
2021/09/12 06:22:00;;;;;;;5.20;4.63;;;15.40;93.50;;;;;;5072069;28;20956;-74
2021/09/12 06:24:26;;;;;;;6.28;4.72;;;15.40;93.90;;;;;;5061675;28;20341;-74
2021/09/12 06:26:53;;;;;;;5.57;5.00;;;15.40;93.70;;;;;;5052679;28;20235;-74
2021/09/12 06:29:20;;;;;;;7.00;4.70;;;15.40;94.40;;;;;;5051820;28;20899;-73
2021/09/12 06:31:48;;;;;;;5.00;4.00;;;15.40;94.10;;;;;;5051917;28;20544;-74
2021/09/12 06:34:16;;;;;;;4.80;4.40;;;15.50;93.50;;;;;;5061439;28;20475;-74
2021/09/12 06:36:43;;;;;;;4.70;4.30;;;15.50;93.50;;;;;;5075570;28;20457;-74
2021/09/12 06:39:10;;;;;;;5.00;4.60;;;15.60;93.50;;;;;;5071951;28;20463;-74
2021/09/12 06:41:37;;;;;;;5.50;5.00;;;15.70;93.30;;;;;;5075602;28;20513;-74
2021/09/12 06:44:04;;;;;;;3.93;3.63;;;15.80;93.10;;;;;;5067478;28;20519;-74
2021/09/12 06:46:32;;;;;;;4.60;4.20;;;15.90;92.40;;;;;;5056617;28;20490;-74
2021/09/12 06:48:59;;;;;;;5.20;4.70;;;16.00;91.90;;;;;;5062915;28;20508;-74
2021/09/12 06:51:27;;;;;;;4.40;4.10;;;16.10;91.40;;;;;;5076798;28;20445;-74
2021/09/12 06:53:54;;;;;;;6.00;5.23;;;16.20;90.90;;;;;;5071761;28;20473;-73
2021/09/12 06:56:21;;;;;;;5.10;4.60;;;16.30;90.20;;;;;;5056998;28;20547;-74
2021/09/12 06:58:48;;;;;;;4.53;4.13;;;16.40;90.20;;;;;;5060390;28;20530;-73
2021/09/12 07:01:16;;;;;;;6.10;4.17;;;16.60;88.80;;;;;;5067196;28;20458;-74
2021/09/12 07:03:43;;;;;;;5.30;4.23;;;16.70;86.80;;;;;;5081979;28;20471;-74
2021/09/12 07:06:10;;;;;;;5.13;4.37;;;16.50;86.40;;;;;;5087955;28;20450;-74
2021/09/12 07:08:38;;;;;;;4.30;3.90;;;16.50;88.00;;;;;;5088610;28;20451;-73
2021/09/12 07:11:05;;;;;;;4.60;4.10;;;16.70;87.00;;;;;;5087267;28;20482;-72
2021/09/12 07:13:32;;;;;;;4.70;4.30;;;16.80;86.50;;;;;;5087603;28;20523;-72
2021/09/12 07:15:59;;;;;;;5.50;4.70;;;16.90;84.80;;;;;;5075053;28;20473;-73
2021/09/12 07:18:26;;;;;;;5.30;3.80;;;17.00;82.70;;;;;;5071374;28;20457;-74
2021/09/12 07:20:53;;;;;;;5.00;4.50;;;17.10;82.80;;;;;;5075175;28;20523;-75
2021/09/12 07:23:20;;;;;;;4.77;4.40;;;17.20;82.00;;;;;;5074310;28;20529;-75
2021/09/12 07:25:48;;;;;;;7.50;4.50;;;17.20;80.90;;;;;;5075425;28;20541;-72
2021/09/12 07:28:15;;;;;;;4.93;4.53;;;17.20;82.80;;;;;;5067132;28;20490;-74
2021/09/12 07:30:42;;;;;;;4.63;4.23;;;17.20;81.80;;;;;;5074787;28;20449;-74
2021/09/12 07:33:09;;;;;;;4.73;4.33;;;17.20;82.60;;;;;;5058608;28;20826;-74
2021/09/12 07:35:36;;;;;;;4.67;4.20;;;17.30;82.90;;;;;;5055816;28;20461;-74
2021/09/12 07:38:02;;;;;;;4.40;4.00;;;17.40;82.60;;;;;;5056388;28;20908;-74
2021/09/12 07:40:29;;;;;;;4.23;3.93;;;17.50;81.10;;;;;;5056864;28;20552;-73
2021/09/12 07:42:58;;;;;;;6.10;4.00;;;17.60;82.30;;;;;;5056019;28;20464;-74
2021/09/12 07:45:25;;;;;;;5.07;4.57;;;17.50;79.60;;;;;;5069283;28;20438;-73
2021/09/12 07:47:51;;;;;;;4.10;3.80;;;17.50;81.00;;;;;;5081263;28;20484;-73
2021/09/12 07:50:18;;;;;;;4.27;3.97;;;17.70;80.50;;;;;;5077257;28;20506;-73
2021/09/12 07:52:45;;;;;;;4.57;4.17;;;18.00;78.40;;;;;;5078294;28;20534;-72
2021/09/12 07:55:14;;;;;;;4.63;4.27;;;18.10;75.40;;;;;;5068713;28;20555;-75
2021/09/12 07:57:42;;;;;;;4.57;4.27;;;18.00;76.00;;;;;;5072144;28;20503;-73
2021/09/12 08:00:12;;;;;;;5.13;4.63;;;18.10;76.70;;;;;;5072098;28;20458;-73
2021/09/12 08:02:39;;;;;;;5.03;4.30;;;18.40;75.20;;;;;;5040774;28;20447;-73
2021/09/12 08:05:07;;;;;;;4.53;4.13;;;18.60;72.80;;;;;;5016015;28;20446;-73
2021/09/12 08:07:34;;;;;;;6.00;3.77;;;18.80;72.70;;;;;;4996462;28;20471;-73
2021/09/12 08:10:01;;;;;;;4.17;3.77;;;18.90;71.70;;;;;;4996009;28;20444;-73
2021/09/12 08:12:28;;;;;;;5.57;4.30;;;19.00;69.90;;;;;;4990331;28;20472;-73
2021/09/12 08:14:55;;;;;;;4.63;4.30;;;19.10;68.80;;;;;;4997957;28;20487;-74
2021/09/12 08:17:23;;;;;;;4.60;3.63;;;19.30;67.10;;;;;;4995430;28;20442;-74
2021/09/12 08:19:50;;;;;;;3.67;3.37;;;19.20;67.10;;;;;;4992473;28;20517;-74
2021/09/12 08:22:17;;;;;;;4.33;3.83;;;19.20;67.10;;;;;;4999679;28;20451;-74
2021/09/12 08:24:44;;;;;;;4.17;3.87;;;19.40;66.40;;;;;;5002962;28;20534;-74
2021/09/12 08:27:11;;;;;;;5.90;4.17;;;19.20;66.40;;;;;;4994436;28;20422;-75
2021/09/12 08:29:38;;;;;;;4.37;3.97;;;19.30;66.70;;;;;;5009999;28;20462;-74
2021/09/12 08:32:06;;;;;;;3.77;3.47;;;19.50;63.50;;;;;;5014610;28;20433;-75
2021/09/12 08:34:34;;;;;;;4.30;3.50;;;19.40;63.90;;;;;;4998547;28;20450;-72
2021/09/12 08:37:01;;;;;;;4.50;3.60;;;19.40;61.70;;;;;;4994801;28;20464;-73
2021/09/12 08:39:28;;;;;;;7.23;3.57;;;19.50;62.20;;;;;;4994287;28;20528;-73
2021/09/12 08:41:55;;;;;;;6.47;3.43;;;19.80;60.30;;;;;;4994128;28;20468;-74
2021/09/12 08:44:22;;;;;;;3.50;3.20;;;20.10;59.80;;;;;;4993920;28;20583;-73
2021/09/12 08:46:49;;;;;;;4.40;3.53;;;20.30;58.90;;;;;;4998841;28;20458;-73
2021/09/12 08:49:17;;;;;;;4.73;2.80;;;20.40;57.90;;;;;;5015411;28;20808;-75
2021/09/12 08:51:45;;;;;;;2.57;2.37;;;20.60;56.80;;;;;;5015316;28;20458;-74
2021/09/12 08:54:12;;;;;;;3.17;2.80;;;20.90;55.30;;;;;;5003754;28;21009;-74
2021/09/12 08:56:39;;;;;;;3.53;3.23;;;21.00;54.70;;;;;;4996411;28;20438;-74
2021/09/12 08:59:25;;;;;;;3.33;3.03;;;21.30;54.20;;;;;;4995928;28;20562;-74
2021/09/12 09:01:55;;;;;;;5.10;3.00;;;21.50;52.80;;;;;;4994872;28;20472;-74
2021/09/12 09:04:25;;;;;;;4.90;2.40;;;21.50;51.80;;;;;;4994872;28;20475;-74
2021/09/12 09:07:00;;;;;;;2.73;2.53;;;21.60;51.70;;;;;;4995238;28;20465;-74
2021/09/12 09:09:42;;;;;;;2.40;2.30;;;21.70;50.40;;;;;;4998645;28;20522;-75
2021/09/12 09:12:27;;;;;;;3.03;2.80;;;21.70;50.40;;;;;;5017052;28;20435;-73
2021/09/12 09:15:12;;;;;;;2.97;2.77;;;21.90;50.60;;;;;;5028707;28;20766;-73
2021/09/12 09:17:41;;;;;;;2.50;2.30;;;22.00;50.70;;;;;;5021538;28;20436;-72
2021/09/12 09:20:10;;;;;;;2.40;2.20;;;22.00;48.10;;;;;;5014708;28;20487;-74
2021/09/12 09:22:41;;;;;;;4.57;2.70;;;21.90;48.20;;;;;;5021940;28;20454;-73
2021/09/12 09:25:10;;;;;;;2.53;2.33;;;22.00;48.60;;;;;;5012699;28;20885;-75
2021/09/12 09:27:58;;;;;;;5.70;2.60;;;21.60;48.60;;;;;;5001409;28;20546;-74
2021/09/12 09:30:26;;;;;;;2.63;2.43;;;21.50;49.00;;;;;;4998481;28;20470;-74
2021/09/12 09:32:53;;;;;;;2.13;2.00;;;21.40;49.50;;;;;;5014458;28;20485;-75
2021/09/12 09:35:24;;;;;;;2.60;2.40;;;21.40;48.30;;;;;;5014291;28;20469;-75
2021/09/12 09:37:53;;;;;;;4.10;2.20;;;21.60;49.00;;;;;;5000983;28;20497;-76
2021/09/12 09:40:20;;;;;;;2.67;2.37;;;21.70;48.80;;;;;;4993771;28;20998;-74
2021/09/12 09:42:48;;;;;;;2.70;2.20;;;21.60;49.00;;;;;;5004213;28;20521;-75
2021/09/12 09:45:17;;;;;;;3.83;2.20;;;21.70;47.80;;;;;;4994722;28;20845;-74
2021/09/12 09:47:46;;;;;;;5.07;2.57;;;21.80;47.00;;;;;;4992812;28;20577;-74
2021/09/12 09:50:15;;;;;;;2.30;2.03;;;21.90;46.20;;;;;;4990834;28;20578;-74
2021/09/12 09:52:45;;;;;;;2.83;2.53;;;21.80;46.10;;;;;;4989239;28;20476;-74
2021/09/12 09:55:15;;;;;;;2.80;2.20;;;22.10;45.80;;;;;;4999157;28;20493;-74
2021/09/12 09:57:43;;;;;;;2.10;2.00;;;22.20;45.80;;;;;;4994799;28;21010;-75
2021/09/12 10:00:11;;;;;;;5.00;2.73;;;22.40;44.00;;;;;;4990160;28;20506;-75
2021/09/12 10:02:39;;;;;;;2.57;2.20;;;22.50;44.20;;;;;;4995677;28;20490;-74
2021/09/12 10:05:08;;;;;;;2.90;2.00;;;22.10;45.10;;;;;;4995280;28;20485;-73
2021/09/12 10:07:36;;;;;;;2.07;1.97;;;22.30;44.90;;;;;;4997132;28;20434;-73
2021/09/12 10:10:05;;;;;;;2.53;1.83;;;22.50;43.50;;;;;;5000945;28;21031;-74
2021/09/12 10:12:35;;;;;;;2.80;2.33;;;22.60;43.40;;;;;;4994062;28;20460;-74
2021/09/12 10:15:06;;;;;;;3.60;2.10;;;22.80;42.90;;;;;;4992893;28;20518;-74
2021/09/12 10:17:37;;;;;;;2.00;1.80;;;23.20;42.10;;;;;;5012394;28;20541;-74
2021/09/12 10:20:09;;;;;;;2.63;2.43;;;23.50;42.00;;;;;;5019145;28;20560;-72
2021/09/12 10:22:50;;;;;;;4.90;2.30;;;23.60;41.60;;;;;;5010299;28;21201;-73
2021/09/12 10:25:20;;;;;;;2.77;2.10;;;23.60;40.30;;;;;;5010483;28;20528;-73
2021/09/12 10:27:49;;;;;;;3.17;2.00;;;23.60;41.20;;;;;;4999232;28;20459;-74
2021/09/12 10:30:22;;;;;;;2.10;1.90;;;23.80;40.00;;;;;;4996574;28;20929;-73
2021/09/12 10:32:50;;;;;;;1.87;1.77;;;23.70;38.90;;;;;;4997900;28;20436;-73
2021/09/12 10:35:24;;;;;;;2.27;2.10;;;23.60;39.30;;;;;;4998288;28;20491;-73
2021/09/12 10:38:11;;;;;;;2.23;1.90;;;23.40;40.00;;;;;;4997723;28;20442;-73
2021/09/12 10:41:18;;;;;;;2.70;2.50;;;23.60;39.60;;;;;;4997551;28;20459;-74
2021/09/12 10:43:54;;;;;;;2.87;2.57;;;23.50;40.80;;;;;;4995012;28;20602;-74
2021/09/12 10:46:26;;;;;;;2.70;2.50;;;23.10;41.80;;;;;;5004260;28;20462;-74
2021/09/12 10:49:30;;;;;;;2.97;2.77;;;22.90;41.30;;;;;;4999787;28;20971;-74
2021/09/12 10:51:57;;;;;;;2.73;2.53;;;22.80;41.40;;;;;;5008019;28;21026;-73
2021/09/12 10:54:24;;;;;;;3.17;2.20;;;22.80;41.40;;;;;;5001097;28;20483;-74
2021/09/12 10:57:05;;;;;;;2.67;2.47;;;22.90;41.50;;;;;;5000244;28;20509;-74
2021/09/12 10:59:33;;;;;;;2.90;2.00;;;22.80;41.50;;;;;;5007820;28;20479;-75
2021/09/12 11:02:01;;;;;;;3.70;2.10;;;22.80;40.70;;;;;;4998239;28;20470;-74
2021/09/12 11:04:30;;;;;;;2.30;2.20;;;23.00;40.50;;;;;;4997164;28;20977;-74
2021/09/12 11:07:01;;;;;;;2.70;2.50;;;23.00;40.20;;;;;;4997279;28;20538;-73
2021/09/12 11:09:29;;;;;;;2.40;2.20;;;23.00;40.70;;;;;;4997121;28;20411;-74
2021/09/12 11:11:57;;;;;;;2.27;2.13;;;23.40;41.00;;;;;;5004455;28;20522;-74
2021/09/12 11:14:24;;;;;;;2.40;2.20;;;23.70;38.90;;;;;;5008334;28;20578;-74
2021/09/12 11:16:53;;;;;;;2.63;2.27;;;23.50;40.50;;;;;;5006420;28;20875;-75
2021/09/12 11:19:20;;;;;;;2.50;2.07;;;23.60;39.30;;;;;;5005883;28;20493;-74
2021/09/12 11:21:49;;;;;;;2.20;2.10;;;23.90;38.70;;;;;;4997851;28;21033;-74
2021/09/12 11:24:18;;;;;;;2.47;2.20;;;23.90;38.00;;;;;;5012875;28;20553;-74
2021/09/12 11:26:46;;;;;;;3.33;2.00;;;23.50;38.70;;;;;;5005162;28;20536;-73
2021/09/12 11:29:16;;;;;;;2.47;2.27;;;22.90;39.90;;;;;;5000458;28;20460;-73
2021/09/12 11:31:44;;;;;;;3.00;2.17;;;22.90;40.40;;;;;;5008274;28;20516;-73
2021/09/12 11:34:14;;;;;;;2.53;2.33;;;22.80;40.30;;;;;;4994359;28;20458;-73
2021/09/12 11:36:46;;;;;;;3.40;2.20;;;22.90;40.40;;;;;;4995164;28;20999;-73
2021/09/12 11:39:14;;;;;;;2.30;1.90;;;22.90;40.20;;;;;;4994870;28;20506;-74
2021/09/12 11:41:43;;;;;;;1.83;1.70;;;23.10;40.50;;;;;;4995208;28;20438;-75
2021/09/12 11:44:10;;;;;;;2.00;1.87;;;23.40;39.00;;;;;;5022696;23;20499;-76
2021/09/12 11:46:43;;;;;;;2.60;2.10;;;23.80;38.40;;;;;;4981673;28;20863;-76
2021/09/12 11:49:14;;;;;;;2.70;2.50;;;24.30;36.80;;;;;;4999747;28;20439;-74
2021/09/12 11:51:44;;;;;;;2.67;2.50;;;24.60;36.10;;;;;;4996195;28;20487;-74
2021/09/12 11:54:14;;;;;;;2.13;2.03;;;25.00;35.90;;;;;;4995351;28;20865;-75
2021/09/12 11:56:42;;;;;;;2.50;2.30;;;25.30;35.70;;;;;;4995300;28;20442;-75
2021/09/12 11:59:11;;;;;;;7.87;2.77;;;25.50;33.50;;;;;;4994720;28;20466;-75
2021/09/12 12:01:39;;;;;;;2.20;1.93;;;25.40;33.90;;;;;;4994612;28;20903;-74
2021/09/12 12:04:08;;;;;;;3.30;2.60;;;25.30;33.30;;;;;;4994262;28;20478;-74
2021/09/12 12:06:37;;;;;;;4.47;3.10;;;24.90;35.60;;;;;;4994807;28;20481;-76
2021/09/12 12:09:10;;;;;;;2.60;2.40;;;24.90;35.50;;;;;;4994873;28;20456;-75
2021/09/12 12:11:40;;;;;;;2.47;2.27;;;25.40;34.80;;;;;;4994683;28;20517;-75
2021/09/12 12:14:09;;;;;;;2.50;2.33;;;25.70;33.60;;;;;;4995050;28;20983;-75
2021/09/12 12:16:41;;;;;;;2.80;2.40;;;25.70;33.60;;;;;;4994566;28;20849;-75
2021/09/12 12:19:11;;;;;;;2.47;2.27;;;25.70;32.80;;;;;;4994207;28;20586;-75
2021/09/12 12:21:40;;;;;;;2.43;2.30;;;25.50;33.50;;;;;;4984690;28;20435;-75
2021/09/12 12:24:12;;;;;;;2.10;2.00;;;25.30;33.30;;;;;;4985303;28;20574;-75
2021/09/12 12:26:41;;;;;;;2.50;2.30;;;25.10;33.60;;;;;;4993244;28;20465;-76
2021/09/12 12:29:10;;;;;;;2.70;2.50;;;25.10;33.20;;;;;;4994496;28;20929;-76
2021/09/12 12:31:38;;;;;;;1.67;1.57;;;25.00;33.10;;;;;;5003399;28;20435;-74
2021/09/12 12:34:06;;;;;;;3.57;2.27;;;24.90;33.00;;;;;;4995705;28;20504;-74
2021/09/12 12:36:33;;;;;;;2.67;2.30;;;25.10;32.90;;;;;;4998128;28;20497;-73
2021/09/12 12:39:16;;;;;;;2.20;2.10;;;25.30;33.30;;;;;;4997967;28;20458;-74
2021/09/12 12:41:55;;;;;;;2.33;1.97;;;25.50;32.90;;;;;;4998130;28;20445;-74
2021/09/12 12:44:23;;;;;;;2.20;1.83;;;25.60;33.50;;;;;;5000352;28;20450;-74
2021/09/12 12:46:51;;;;;;;3.10;2.00;;;25.90;31.50;;;;;;4994054;28;20449;-74
2021/09/12 12:49:28;;;;;;;2.23;2.03;;;25.70;32.00;;;;;;4975544;28;20904;-73
2021/09/12 12:52:16;;;;;;;2.03;1.93;;;25.30;32.50;;;;;;4975215;28;20555;-76